createdAt,value
2018-01-02T00:01:25.487Z,5.34
2018-01-02T00:03:52.209Z,5.31
2018-01-02T00:06:18.081Z,5.35
2018-01-02T00:08:43.913Z,5.40
2018-01-02T00:11:09.728Z,5.44
2018-01-02T00:13:35.581Z,5.44
2018-01-02T00:16:04.894Z,5.48
2018-01-02T00:18:30.719Z,5.47
2018-01-02T00:20:59.782Z,5.50
2018-01-02T00:23:25.609Z,5.47
2018-01-02T00:25:54.994Z,5.45
2018-01-02T00:28:20.833Z,5.46
2018-01-02T00:30:49.775Z,5.51
2018-01-02T00:33:15.627Z,5.55
2018-01-02T00:35:43.358Z,5.53
2018-01-02T00:38:09.175Z,5.52
2018-01-02T00:40:34.989Z,5.49
2018-01-02T00:43:00.914Z,5.48
2018-01-02T00:45:26.724Z,5.44
2018-01-02T00:47:56.486Z,5.41
2018-01-02T00:50:22.339Z,5.38
2018-01-02T00:52:49.382Z,5.34
2018-01-02T00:55:15.183Z,5.34
2018-01-02T00:57:43.934Z,5.29
2018-01-02T01:00:09.764Z,5.33
2018-01-02T01:05:06.485Z,5.33
2018-01-02T01:07:33.559Z,5.34
2018-01-02T01:09:59.407Z,5.29
2018-01-02T01:12:28.357Z,5.30
2018-01-02T01:14:54.193Z,5.32
2018-01-02T01:17:20.025Z,5.31
2018-01-02T01:19:45.911Z,5.26
2018-01-02T01:22:11.766Z,5.22
2018-01-02T01:24:40.691Z,5.18
2018-01-02T01:27:06.525Z,5.16
2018-01-02T01:29:34.445Z,5.18
2018-01-02T01:32:00.294Z,5.21
2018-01-02T01:36:57.014Z,5.25
2018-01-02T01:39:24.790Z,5.16
2018-01-02T01:41:50.633Z,5.09
2018-01-02T01:44:19.858Z,5.10
2018-01-02T01:46:45.688Z,5.03
2018-01-02T01:52:02.136Z,5.02
2018-01-02T01:54:28.010Z,5.00
2018-01-02T01:56:53.852Z,5.10
2018-01-02T01:59:19.732Z,5.17
2018-01-02T02:01:45.608Z,5.22
2018-01-02T02:04:11.500Z,5.20
2018-01-02T02:06:37.313Z,5.25
2018-01-02T02:09:03.224Z,5.28
2018-01-02T02:11:29.046Z,5.23
2018-01-02T02:13:54.909Z,5.25
2018-01-02T02:16:20.758Z,5.23
2018-01-02T02:18:46.594Z,5.19
2018-01-02T02:21:12.456Z,5.23
2018-01-02T02:23:38.307Z,5.26
2018-01-02T02:26:04.187Z,5.28
2018-01-02T02:28:30.091Z,5.26
2018-01-02T02:30:55.955Z,5.26
2018-01-02T02:33:21.855Z,5.28
2018-01-02T02:35:47.723Z,5.26
2018-01-02T02:38:13.590Z,5.25
2018-01-02T02:40:51.719Z,5.24
2018-01-02T02:43:17.617Z,5.17
2018-01-02T02:45:43.437Z,5.17
2018-01-02T02:48:09.296Z,5.20
2018-01-02T02:50:35.148Z,5.23
2018-01-02T02:53:00.972Z,5.22
2018-01-02T02:55:26.868Z,5.25
2018-01-02T02:57:52.795Z,5.27
2018-01-02T03:00:18.744Z,5.26
2018-01-02T03:02:44.593Z,5.34
2018-01-02T03:05:10.438Z,5.37
2018-01-02T03:07:36.309Z,5.38
2018-01-02T03:10:02.152Z,5.42
2018-01-02T03:12:28.051Z,5.47
2018-01-02T03:14:57.931Z,5.53
2018-01-02T03:17:23.778Z,5.52
2018-01-02T03:19:50.975Z,5.53
2018-01-02T03:22:16.828Z,5.55
2018-01-02T03:24:46.110Z,5.54
2018-01-02T03:27:11.983Z,5.52
2018-01-02T03:29:41.062Z,5.52
2018-01-02T03:32:06.942Z,5.44
2018-01-02T03:34:36.437Z,5.45
2018-01-02T03:37:02.283Z,5.41
2018-01-02T03:39:29.712Z,5.40
2018-01-02T03:41:55.604Z,5.41
2018-01-02T03:44:21.473Z,5.45
2018-01-02T03:46:47.360Z,5.44
2018-01-02T03:49:13.205Z,5.44
2018-01-02T03:51:43.024Z,5.50
2018-01-02T03:54:08.920Z,5.45
2018-01-02T03:56:36.275Z,5.36
2018-01-02T03:59:02.132Z,5.32
2018-01-02T04:01:31.218Z,5.26
2018-01-02T04:03:57.166Z,5.20
2018-01-02T04:06:26.233Z,5.09
2018-01-02T04:08:52.080Z,5.04
2018-01-02T04:11:21.525Z,5.03
2018-01-02T04:13:47.404Z,4.99
2018-01-02T04:16:16.632Z,5.02
2018-01-02T04:18:42.503Z,4.98
2018-01-02T04:21:08.380Z,5.02
2018-01-02T04:23:34.239Z,5.03
2018-01-02T04:26:00.143Z,5.05
2018-01-02T04:28:26.992Z,5.02
2018-01-02T04:30:52.848Z,5.03
2018-01-02T04:33:22.238Z,5.03
2018-01-02T04:35:48.082Z,5.07
2018-01-02T04:38:16.134Z,5.01
2018-01-02T04:40:41.996Z,4.98
2018-01-02T04:43:10.739Z,4.93
2018-01-02T04:45:36.591Z,4.87
2018-01-02T04:48:04.923Z,4.82
2018-01-02T04:50:30.820Z,4.74
2018-01-02T04:52:56.700Z,4.66
2018-01-02T04:55:25.925Z,4.66
2018-01-02T04:57:51.783Z,4.57
2018-01-02T05:00:17.680Z,4.52
2018-01-02T05:02:43.532Z,4.49
2018-01-02T05:05:12.107Z,4.53
2018-01-02T05:07:37.970Z,4.42
2018-01-02T05:10:06.749Z,4.40
2018-01-02T05:12:32.598Z,4.39
2018-01-02T05:15:02.200Z,4.41
2018-01-02T05:17:28.075Z,4.37
2018-01-02T05:19:55.887Z,4.39
2018-01-02T05:22:21.796Z,4.42
2018-01-02T05:24:48.346Z,4.39
2018-01-02T05:27:15.791Z,4.35
2018-01-02T05:29:41.700Z,4.39
2018-01-02T05:32:08.851Z,4.43
2018-01-02T05:34:34.725Z,4.49
2018-01-02T05:37:03.833Z,4.51
2018-01-02T05:39:29.669Z,4.51
2018-01-02T05:41:57.228Z,4.55
2018-01-02T05:44:23.112Z,4.65
2018-01-02T05:46:52.573Z,4.65
2018-01-02T05:49:18.483Z,4.66
2018-01-02T05:51:48.378Z,4.68
2018-01-02T05:54:14.262Z,4.67
2018-01-02T05:56:42.112Z,4.74
2018-01-02T05:59:08.022Z,4.72
2018-01-02T06:01:37.470Z,4.70
2018-01-02T06:04:03.407Z,4.70
2018-01-02T06:06:32.642Z,4.69
2018-01-02T06:08:58.489Z,4.60
2018-01-02T06:11:24.373Z,4.52
2018-01-02T06:13:50.250Z,4.43
2018-01-02T06:16:16.099Z,4.37
2018-01-02T06:18:43.425Z,4.33
2018-01-02T06:21:09.346Z,4.26
2018-01-02T06:23:37.012Z,4.26
2018-01-02T06:26:02.907Z,4.30
2018-01-02T06:30:59.703Z,4.28
2018-01-02T06:33:28.618Z,4.32
2018-01-02T06:35:54.520Z,4.39
2018-01-02T06:38:21.634Z,4.45
2018-01-02T06:40:47.511Z,4.45
2018-01-02T06:43:16.470Z,4.44
2018-01-02T06:45:42.331Z,4.37
2018-01-02T06:48:08.270Z,4.32
2018-01-02T06:50:34.136Z,4.31
2018-01-02T06:53:00.056Z,4.32
2018-01-02T06:55:27.737Z,4.31
2018-01-02T06:57:53.592Z,4.32
2018-01-02T07:00:22.887Z,4.31
2018-01-02T07:02:48.806Z,4.31
2018-01-02T07:05:18.344Z,4.32
2018-01-02T07:07:44.178Z,4.28
2018-01-02T07:10:13.890Z,4.36
2018-01-02T07:12:39.725Z,4.40
2018-01-02T07:15:07.048Z,4.47
2018-01-02T07:17:32.857Z,4.51
2018-01-02T07:20:01.363Z,4.47
2018-01-02T07:22:27.249Z,4.54
2018-01-02T07:24:53.119Z,4.56
2018-01-02T07:27:18.920Z,4.55
2018-01-02T07:29:44.757Z,4.56
2018-01-02T07:32:14.484Z,4.53
2018-01-02T07:34:40.313Z,4.52
2018-01-02T07:37:07.857Z,4.47
2018-01-02T07:39:33.750Z,4.47
2018-01-02T07:42:03.157Z,4.49
2018-01-02T07:44:29.057Z,4.50
2018-01-02T07:46:57.916Z,4.52
2018-01-02T07:49:23.762Z,4.55
2018-01-02T07:51:53.130Z,4.49
2018-01-02T07:54:18.953Z,4.54
2018-01-02T07:56:46.665Z,4.53
2018-01-02T07:59:12.540Z,4.57
2018-01-02T08:01:38.430Z,4.60
2018-01-02T08:04:04.269Z,4.61
2018-01-02T08:06:30.149Z,4.64
2018-01-02T08:08:59.249Z,4.68
2018-01-02T08:11:25.130Z,4.71
2018-01-02T08:13:53.053Z,4.77
2018-01-02T08:16:18.922Z,4.82
2018-01-02T08:18:47.959Z,4.85
2018-01-02T08:21:13.817Z,4.90
2018-01-02T08:23:42.910Z,4.89
2018-01-02T08:26:08.731Z,4.93
2018-01-02T08:28:37.437Z,4.96
2018-01-02T08:31:03.286Z,5.07
2018-01-02T08:33:32.808Z,5.03
2018-01-02T08:35:58.646Z,4.99
2018-01-02T08:38:24.491Z,4.99
2018-01-02T08:40:50.330Z,4.95
2018-01-02T08:43:16.133Z,4.97
2018-01-02T08:45:44.844Z,5.01
2018-01-02T08:48:10.714Z,5.77
2018-01-02T08:50:39.216Z,7.56
2018-01-02T08:53:05.068Z,8.29
2018-01-02T08:55:34.082Z,8.10
2018-01-02T08:57:59.922Z,7.78
2018-01-02T09:00:28.107Z,6.90
2018-01-02T09:02:53.965Z,6.28
2018-01-02T09:05:24.209Z,6.08
2018-01-02T09:07:50.067Z,5.91
2018-01-02T09:10:19.432Z,5.82
2018-01-02T09:12:47.256Z,5.61
2018-01-02T09:15:13.110Z,5.55
2018-01-02T09:17:38.977Z,5.47
2018-01-02T09:20:04.856Z,5.43
2018-01-02T09:22:30.656Z,5.40
2018-01-02T09:24:56.531Z,5.40
2018-01-02T09:27:24.314Z,5.41
2018-01-02T09:29:50.124Z,5.45
2018-01-02T09:32:18.619Z,5.48
2018-01-02T09:34:44.476Z,5.51
2018-01-02T09:37:13.880Z,5.56
2018-01-02T09:39:39.782Z,5.55
2018-01-02T09:42:08.142Z,5.61
2018-01-02T09:44:33.949Z,5.62
2018-01-02T09:47:03.281Z,5.66
2018-01-02T09:49:29.278Z,5.78
2018-01-02T09:51:55.074Z,5.85
2018-01-02T09:54:20.947Z,6.21
2018-01-02T09:56:46.818Z,6.77
2018-01-02T09:59:15.587Z,6.65
2018-01-02T10:01:41.462Z,6.56
2018-01-02T10:04:09.276Z,7.23
2018-01-02T10:06:35.074Z,8.76
2018-01-02T10:09:06.816Z,9.50
2018-01-02T10:11:32.656Z,8.46
2018-01-02T10:13:58.645Z,7.56
2018-01-02T10:16:24.475Z,6.95
2018-01-02T10:18:53.518Z,6.76
2018-01-02T10:21:19.378Z,7.93
2018-01-02T10:23:48.829Z,9.84
2018-01-02T10:26:14.668Z,10.79
2018-01-02T10:28:40.515Z,11.26
2018-01-02T10:31:06.377Z,11.12
2018-01-02T10:33:32.227Z,10.96
2018-01-02T10:36:01.498Z,11.27
2018-01-02T10:38:27.349Z,10.84
2018-01-02T10:40:55.338Z,10.60
2018-01-02T10:43:21.156Z,9.33
2018-01-02T10:45:50.607Z,9.07
2018-01-02T10:48:16.451Z,9.80
2018-01-02T10:50:45.970Z,9.71
2018-01-02T10:53:11.789Z,8.32
2018-01-02T10:55:39.331Z,7.46
2018-01-02T10:58:05.204Z,7.37
2018-01-02T11:00:40.409Z,6.96
2018-01-02T11:03:06.246Z,6.55
2018-01-02T11:05:32.092Z,6.63
2018-01-02T11:07:57.945Z,8.21
2018-01-02T11:10:23.794Z,9.32
2018-01-02T11:12:53.506Z,9.67
2018-01-02T11:15:19.386Z,10.26
2018-01-02T11:17:45.212Z,9.73
2018-01-02T11:20:11.065Z,9.14
2018-01-02T11:22:36.903Z,8.34
2018-01-02T11:25:02.717Z,7.85
2018-01-02T11:27:30.123Z,7.44
2018-01-02T11:29:55.926Z,6.93
2018-01-02T11:32:25.475Z,6.56
2018-01-02T11:34:51.334Z,6.68
2018-01-02T11:37:18.906Z,6.69
2018-01-02T11:39:44.716Z,6.65
2018-01-02T11:42:10.614Z,6.92
2018-01-02T11:44:36.450Z,7.35
2018-01-02T11:47:02.293Z,7.74
2018-01-02T11:49:31.689Z,8.07
2018-01-02T11:51:57.512Z,8.20
2018-01-02T11:54:26.868Z,8.67
2018-01-02T11:56:52.752Z,8.20
2018-01-02T11:59:20.273Z,7.65
2018-01-02T12:01:46.130Z,7.16
2018-01-02T12:04:14.369Z,7.05
2018-01-02T12:06:40.197Z,6.85
2018-01-02T12:11:36.938Z,6.68
2018-01-02T12:14:04.197Z,6.47
2018-01-02T12:16:30.054Z,6.39
2018-01-02T12:18:55.921Z,6.37
2018-01-02T12:21:21.767Z,6.27
2018-01-02T12:23:47.643Z,6.25
2018-01-02T12:26:17.469Z,6.17
2018-01-02T12:28:43.328Z,6.07
2018-01-02T12:31:10.641Z,6.01
2018-01-02T12:33:36.472Z,5.92
2018-01-02T12:36:05.291Z,5.95
2018-01-02T12:38:31.154Z,5.93
2018-01-02T12:40:59.885Z,5.96
2018-01-02T12:43:25.708Z,5.99
2018-01-02T12:45:54.258Z,6.05
2018-01-02T12:48:20.102Z,6.11
2018-01-02T12:53:16.878Z,6.03
2018-01-02T12:55:42.805Z,6.01
2018-01-02T12:58:08.622Z,5.94
2018-01-02T13:00:34.517Z,5.88
2018-01-02T13:03:01.467Z,5.83
2018-01-02T13:05:27.313Z,6.10
2018-01-02T13:07:56.396Z,6.09
2018-01-02T13:10:22.253Z,6.21
2018-01-02T13:12:51.364Z,6.11
2018-01-02T13:15:17.227Z,6.17
2018-01-02T13:17:45.255Z,6.17
2018-01-02T13:20:11.091Z,6.15
2018-01-02T13:22:39.784Z,6.12
2018-01-02T13:25:05.612Z,6.17
2018-01-02T13:27:34.273Z,6.36
2018-01-02T13:30:00.206Z,6.32
2018-01-02T13:32:26.034Z,6.28
2018-01-02T13:34:51.907Z,6.19
2018-01-02T13:37:17.774Z,6.13
2018-01-02T13:39:46.791Z,6.04
2018-01-02T13:42:12.673Z,5.96
2018-01-02T13:44:41.673Z,5.93
2018-01-02T13:47:07.534Z,5.89
2018-01-02T13:49:36.588Z,6.01
2018-01-02T13:52:02.470Z,6.06
2018-01-02T13:54:31.834Z,6.11
2018-01-02T13:56:57.727Z,6.22
2018-01-02T13:59:26.979Z,6.27
2018-01-02T14:01:52.831Z,6.24
2018-01-02T14:04:21.912Z,6.32
2018-01-02T14:06:47.803Z,6.43
2018-01-02T14:09:13.645Z,6.34
2018-01-02T14:11:39.494Z,6.27
2018-01-02T14:14:05.382Z,6.28
2018-01-02T14:16:31.740Z,6.27
2018-01-02T14:18:57.615Z,6.30
2018-01-02T14:21:27.271Z,6.33
2018-01-02T14:23:53.115Z,6.28
2018-01-02T14:26:22.946Z,6.40
2018-01-02T14:28:48.815Z,6.47
2018-01-02T14:31:15.806Z,6.46
2018-01-02T14:33:41.650Z,6.45
2018-01-02T14:36:10.392Z,6.49
2018-01-02T14:38:36.213Z,6.47
2018-01-02T14:41:05.425Z,6.47
2018-01-02T14:43:31.297Z,6.43
2018-01-02T14:45:57.156Z,6.43
2018-01-02T14:48:23.041Z,6.34
2018-01-02T14:50:48.887Z,6.28
2018-01-02T14:53:18.268Z,6.24
2018-01-02T14:55:44.141Z,6.13
2018-01-02T14:58:13.174Z,6.07
2018-01-02T15:00:39.004Z,6.08
2018-01-02T15:03:06.400Z,6.02
2018-01-02T15:05:32.299Z,6.01
2018-01-02T15:08:00.936Z,5.97
2018-01-02T15:10:26.768Z,6.01
2018-01-02T15:12:53.335Z,5.98
2018-01-02T15:15:20.760Z,5.95
2018-01-02T15:17:46.665Z,5.88
2018-01-02T15:20:13.119Z,5.88
2018-01-02T15:22:38.980Z,5.82
2018-01-02T15:25:08.568Z,5.77
2018-01-02T15:27:34.451Z,5.77
2018-01-02T15:30:03.297Z,5.69
2018-01-02T15:32:29.140Z,5.69
2018-01-02T15:34:58.118Z,5.69
2018-01-02T15:37:24.006Z,5.67
2018-01-02T15:39:53.015Z,5.61
2018-01-02T15:42:18.888Z,5.66
2018-01-02T15:44:48.242Z,5.63
2018-01-02T15:47:14.065Z,5.65
2018-01-02T15:49:41.362Z,5.58
2018-01-02T15:52:07.180Z,5.55
2018-01-02T15:54:36.557Z,5.49
2018-01-02T15:57:02.394Z,5.50
2018-01-02T15:59:28.289Z,5.46
2018-01-02T16:01:54.094Z,5.40
2018-01-02T16:04:19.948Z,5.34
2018-01-02T16:06:49.013Z,5.35
2018-01-02T16:09:14.854Z,5.31
2018-01-02T16:11:44.034Z,5.31
2018-01-02T16:14:09.894Z,5.23
2018-01-02T16:16:37.309Z,5.22
2018-01-02T16:19:03.140Z,5.21
2018-01-02T16:21:32.227Z,5.16
2018-01-02T16:23:58.098Z,5.13
2018-01-02T16:26:27.912Z,5.11
2018-01-02T16:28:53.816Z,5.01
2018-01-02T16:31:23.059Z,4.94
2018-01-02T16:33:48.944Z,4.92
2018-01-02T16:36:14.811Z,4.88
2018-01-02T16:38:40.725Z,4.84
2018-01-02T16:41:06.588Z,4.82
2018-01-02T16:43:33.230Z,4.82
2018-01-02T16:45:59.100Z,4.81
2018-01-02T16:48:28.874Z,4.79
2018-01-02T16:50:54.756Z,4.79
2018-01-02T16:53:25.488Z,4.79
2018-01-02T16:55:51.370Z,4.76
2018-01-02T16:58:17.265Z,4.77
2018-01-02T17:00:43.151Z,4.78
2018-01-02T17:03:12.230Z,4.80
2018-01-02T17:05:38.069Z,4.79
2018-01-02T17:08:07.111Z,4.82
2018-01-02T17:10:33.003Z,4.79
2018-01-02T17:12:58.842Z,4.78
2018-01-02T17:15:24.720Z,4.76
2018-01-02T17:17:50.590Z,4.78
2018-01-02T17:20:20.036Z,4.78
2018-01-02T17:22:45.914Z,4.78
2018-01-02T17:25:13.211Z,4.80
2018-01-02T17:27:39.072Z,4.75
2018-01-02T17:30:08.524Z,4.72
2018-01-02T17:32:34.375Z,4.70
2018-01-02T17:35:03.669Z,4.68
2018-01-02T17:37:29.554Z,4.71
2018-01-02T17:39:58.799Z,4.73
2018-01-02T17:42:24.656Z,4.72
2018-01-02T17:44:52.019Z,4.71
2018-01-02T17:47:17.898Z,4.69
2018-01-02T17:49:43.774Z,4.71
2018-01-02T17:52:09.651Z,4.78
2018-01-02T17:54:35.540Z,4.80
2018-01-02T17:57:03.209Z,4.82
2018-01-02T17:59:29.076Z,4.87
2018-01-02T18:01:58.194Z,4.93
2018-01-02T18:04:24.086Z,4.98
2018-01-02T18:06:52.656Z,4.98
2018-01-02T18:09:18.531Z,4.98
2018-01-02T18:14:15.334Z,5.07
2018-01-02T18:16:42.527Z,5.08
2018-01-02T18:19:08.384Z,5.10
2018-01-02T18:21:37.710Z,5.08
2018-01-02T18:24:03.580Z,5.07
2018-01-02T18:26:29.488Z,5.05
2018-01-02T18:28:55.372Z,5.02
2018-01-02T18:31:21.251Z,5.06
2018-01-02T18:33:50.671Z,5.02
2018-01-02T18:36:16.586Z,5.06
2018-01-02T18:38:43.688Z,5.16
2018-01-02T18:41:09.547Z,5.14
2018-01-02T18:43:38.866Z,5.13
2018-01-02T18:46:04.805Z,5.14
2018-01-02T18:48:33.140Z,5.19
2018-01-02T18:50:58.994Z,5.22
2018-01-02T18:53:29.937Z,5.24
2018-01-02T18:55:55.787Z,5.25
2018-01-02T18:58:22.713Z,5.25
2018-01-02T19:00:48.589Z,5.25
2018-01-02T19:03:14.498Z,5.22
2018-01-02T19:05:40.402Z,5.28
2018-01-02T19:08:06.277Z,5.30
2018-01-02T19:10:35.539Z,5.38
2018-01-02T19:13:01.403Z,5.38
2018-01-02T19:15:30.712Z,5.26
2018-01-02T19:17:56.601Z,5.22
2018-01-02T19:20:23.779Z,5.22
2018-01-02T19:22:49.655Z,5.24
2018-01-02T19:25:19.476Z,5.32
2018-01-02T19:27:45.421Z,5.34
2018-01-02T19:30:14.598Z,5.39
2018-01-02T19:32:40.409Z,5.49
2018-01-02T19:35:09.667Z,5.53
2018-01-02T19:37:35.516Z,5.60
2018-01-02T19:40:01.419Z,5.57
2018-01-02T19:42:27.289Z,5.62
2018-01-02T19:44:53.188Z,5.64
2018-01-02T19:47:19.481Z,5.57
2018-01-02T19:49:45.406Z,5.54
2018-01-02T19:52:14.165Z,5.52
2018-01-02T19:54:39.994Z,5.52
2018-01-02T19:57:09.501Z,5.57
2018-01-02T19:59:35.399Z,5.52
2018-01-02T20:02:04.565Z,5.54
2018-01-02T20:04:30.432Z,5.57
2018-01-02T20:06:59.688Z,5.57
2018-01-02T20:09:25.578Z,5.59
2018-01-02T20:11:53.131Z,5.61
2018-01-02T20:14:19.021Z,5.58
2018-01-02T20:16:44.894Z,5.62
2018-01-02T20:19:10.762Z,5.64
2018-01-02T20:21:37.457Z,5.66
2018-01-02T20:24:06.602Z,5.66
2018-01-02T20:26:32.479Z,5.67
2018-01-02T20:29:00.005Z,5.69
2018-01-02T20:31:25.911Z,5.70
2018-01-02T20:33:55.270Z,5.67
2018-01-02T20:36:21.136Z,5.74
2018-01-02T20:38:49.850Z,5.78
2018-01-02T20:41:15.718Z,5.80
2018-01-02T20:43:43.836Z,5.86
2018-01-02T20:46:09.710Z,5.90
2018-01-02T20:48:38.338Z,5.90
2018-01-02T20:51:04.236Z,5.95
2018-01-02T20:53:30.129Z,5.93
2018-01-02T20:55:56.081Z,5.94
2018-01-02T20:58:21.936Z,5.98
2018-01-02T21:00:51.698Z,6.00
2018-01-02T21:03:17.570Z,5.98
2018-01-02T21:05:44.761Z,6.00
2018-01-02T21:08:10.656Z,5.96
2018-01-02T21:10:39.276Z,5.96
2018-01-02T21:13:05.160Z,5.99
2018-01-02T21:15:34.705Z,5.90
2018-01-02T21:18:00.582Z,5.89
2018-01-02T21:20:30.307Z,5.88
2018-01-02T21:22:56.183Z,5.87
2018-01-02T21:25:25.367Z,5.86
2018-01-02T21:27:51.284Z,5.83
2018-01-02T21:30:17.143Z,5.80
2018-01-02T21:32:42.991Z,5.88
2018-01-02T21:35:08.898Z,5.89
2018-01-02T21:37:35.392Z,5.87
2018-01-02T21:40:01.256Z,5.84
2018-01-02T21:42:30.329Z,5.85
2018-01-02T21:44:56.222Z,5.79
2018-01-02T21:47:25.754Z,5.79
2018-01-02T21:49:51.636Z,5.80
2018-01-02T21:52:19.715Z,5.82
2018-01-02T21:54:45.566Z,5.75
2018-01-02T21:57:14.288Z,5.77
2018-01-02T21:59:40.167Z,5.79
2018-01-02T22:02:09.455Z,5.78
2018-01-02T22:04:35.326Z,5.76
2018-01-02T22:07:01.185Z,5.73
2018-01-02T22:09:27.047Z,5.73
2018-01-02T22:11:52.960Z,5.70
2018-01-02T22:14:21.684Z,5.64
2018-01-02T22:16:47.543Z,5.66
2018-01-02T22:19:15.149Z,5.72
2018-01-02T22:21:41.059Z,5.61
2018-01-02T22:24:09.809Z,5.60
2018-01-02T22:26:35.679Z,5.59
2018-01-02T22:29:04.422Z,5.60
2018-01-02T22:31:30.269Z,5.62
2018-01-02T22:36:27.117Z,5.63
2018-01-02T22:38:54.395Z,5.58
2018-01-02T22:41:20.248Z,5.62
2018-01-02T22:43:46.145Z,5.53
2018-01-02T22:46:12.051Z,5.51
2018-01-02T22:48:37.946Z,5.51
2018-01-02T22:51:07.417Z,5.49
2018-01-02T22:53:33.309Z,5.43
2018-01-02T22:56:00.816Z,5.45
2018-01-02T22:58:26.681Z,5.47
2018-01-02T23:00:56.278Z,5.46
2018-01-02T23:03:22.154Z,5.47
2018-01-02T23:05:51.588Z,5.52
2018-01-02T23:08:17.444Z,5.60
2018-01-02T23:10:46.474Z,5.58
2018-01-02T23:13:12.313Z,5.56
2018-01-02T23:15:39.640Z,5.53
2018-01-02T23:18:05.476Z,5.60
2018-01-02T23:20:31.312Z,5.58
2018-01-02T23:22:57.172Z,5.56
2018-01-02T23:25:23.015Z,5.58
2018-01-02T23:27:51.156Z,5.65
2018-01-02T23:30:17.023Z,5.68
2018-01-02T23:32:46.121Z,5.69
2018-01-02T23:35:12.019Z,5.67
2018-01-02T23:37:40.720Z,5.68
2018-01-02T23:40:06.611Z,5.71
2018-01-02T23:42:36.324Z,5.71
2018-01-02T23:45:02.230Z,5.74
2018-01-02T23:47:31.192Z,5.78
2018-01-02T23:49:57.060Z,5.82
2018-01-02T23:52:26.132Z,5.82
2018-01-02T23:54:51.986Z,5.87
2018-01-02T23:57:17.856Z,5.90
2018-01-02T23:59:43.741Z,5.96
